createdAt,value
2018-04-26T00:00:11.999Z,1006.96
2018-04-26T00:01:12.138Z,1006.97
2018-04-26T00:02:12.031Z,1006.98
2018-04-26T00:03:12.049Z,1006.96
2018-04-26T00:04:12.063Z,1007.04
2018-04-26T00:05:12.088Z,1006.96
2018-04-26T00:06:12.101Z,1006.99
2018-04-26T00:07:12.120Z,1006.84
2018-04-26T00:08:12.146Z,1006.79
2018-04-26T00:09:12.149Z,1006.92
2018-04-26T00:10:12.172Z,1006.93
2018-04-26T00:11:12.193Z,1006.88
2018-04-26T00:12:12.208Z,1006.88
2018-04-26T00:13:12.235Z,1006.87
2018-04-26T00:14:12.240Z,1006.83
2018-04-26T00:15:12.261Z,1006.85
2018-04-26T00:16:12.279Z,1006.63
2018-04-26T00:17:12.293Z,1006.87
2018-04-26T00:18:12.306Z,1006.86
2018-04-26T00:19:12.375Z,1006.95
2018-04-26T00:20:12.340Z,1006.84
2018-04-26T00:21:12.366Z,1006.84
2018-04-26T00:22:12.379Z,1006.84
2018-04-26T00:23:12.397Z,1006.82
2018-04-26T00:24:12.419Z,1006.76
2018-04-26T00:25:12.437Z,1006.69
2018-04-26T00:26:12.452Z,1006.73
2018-04-26T00:27:12.464Z,1006.78
2018-04-26T00:28:12.480Z,1006.72
2018-04-26T00:29:12.497Z,1006.66
2018-04-26T00:30:12.519Z,1006.73
2018-04-26T00:31:12.591Z,1006.76
2018-04-26T00:32:12.551Z,1006.70
2018-04-26T00:33:12.575Z,1006.67
2018-04-26T00:34:12.585Z,1006.68
2018-04-26T00:35:12.602Z,1006.77
2018-04-26T00:36:12.673Z,1006.70
2018-04-26T00:37:12.639Z,1006.67
2018-04-26T00:38:12.661Z,1006.64
2018-04-26T00:39:12.677Z,1006.69
2018-04-26T00:40:12.691Z,1006.79
2018-04-26T00:41:12.707Z,1006.61
2018-04-26T00:42:12.768Z,1006.63
2018-04-26T00:43:12.796Z,1006.70
2018-04-26T00:44:12.761Z,1006.62
2018-04-26T00:45:12.778Z,1006.58
2018-04-26T00:46:12.799Z,1006.57
2018-04-26T00:47:12.814Z,1006.64
2018-04-26T00:48:12.835Z,1006.57
2018-04-26T00:49:12.846Z,1006.53
2018-04-26T00:50:12.868Z,1006.54
2018-04-26T00:51:12.884Z,1006.62
2018-04-26T00:52:12.901Z,1006.52
2018-04-26T00:53:12.921Z,1006.50
2018-04-26T00:54:12.937Z,1006.54
2018-04-26T00:55:13.005Z,1006.52
2018-04-26T00:56:12.968Z,1006.57
2018-04-26T00:57:12.985Z,1006.56
2018-04-26T00:58:13.012Z,1006.58
2018-04-26T00:59:13.038Z,1006.58
2018-04-26T01:00:13.035Z,1006.56
2018-04-26T01:01:13.105Z,1006.60
2018-04-26T01:02:13.076Z,1006.46
2018-04-26T01:03:13.088Z,1006.56
2018-04-26T01:04:13.103Z,1006.63
2018-04-26T01:05:13.163Z,1006.59
2018-04-26T01:06:13.141Z,1006.61
2018-04-26T01:07:13.163Z,1006.56
2018-04-26T01:08:13.177Z,1006.54
2018-04-26T01:09:13.191Z,1006.49
2018-04-26T01:10:13.209Z,1006.47
2018-04-26T01:11:13.224Z,1006.51
2018-04-26T01:12:13.241Z,1006.50
2018-04-26T01:13:13.261Z,1006.54
2018-04-26T01:14:13.287Z,1006.47
2018-04-26T01:15:13.295Z,1006.42
2018-04-26T01:16:13.316Z,1006.47
2018-04-26T01:17:13.334Z,1006.36
2018-04-26T01:18:13.355Z,1006.42
2018-04-26T01:19:13.370Z,1006.46
2018-04-26T01:20:13.381Z,1006.44
2018-04-26T01:21:13.402Z,1006.47
2018-04-26T01:22:13.415Z,1006.37
2018-04-26T01:23:13.441Z,1006.49
2018-04-26T01:24:13.452Z,1006.45
2018-04-26T01:25:13.522Z,1006.47
2018-04-26T01:26:13.488Z,1006.39
2018-04-26T01:27:13.508Z,1006.43
2018-04-26T01:28:13.602Z,1006.42
2018-04-26T01:29:13.538Z,1006.36
2018-04-26T01:30:13.559Z,1006.49
2018-04-26T01:31:13.573Z,1006.44
2018-04-26T01:32:13.591Z,1006.36
2018-04-26T01:33:13.613Z,1006.44
2018-04-26T01:34:13.688Z,1006.45
2018-04-26T01:35:13.647Z,1006.39
2018-04-26T01:36:13.664Z,1006.35
2018-04-26T01:37:13.729Z,1006.31
2018-04-26T01:38:13.696Z,1006.33
2018-04-26T01:39:13.713Z,1006.31
2018-04-26T01:40:13.726Z,1006.35
2018-04-26T01:41:13.745Z,1006.37
2018-04-26T01:42:13.765Z,1006.37
2018-04-26T01:43:13.835Z,1006.34
2018-04-26T01:44:13.798Z,1006.39
2018-04-26T01:45:13.823Z,1006.36
2018-04-26T01:46:13.842Z,1006.32
2018-04-26T01:47:13.846Z,1006.38
2018-04-26T01:48:13.869Z,1006.37
2018-04-26T01:49:13.934Z,1006.42
2018-04-26T01:50:13.905Z,1006.42
2018-04-26T01:51:13.921Z,1006.35
2018-04-26T01:52:13.939Z,1006.35
2018-04-26T01:53:13.954Z,1006.40
2018-04-26T01:54:13.975Z,1006.39
2018-04-26T01:55:14.045Z,1006.39
2018-04-26T01:56:14.006Z,1006.34
2018-04-26T01:57:14.121Z,1006.34
2018-04-26T01:58:14.044Z,1006.29
2018-04-26T01:59:14.058Z,1006.33
2018-04-26T02:00:14.077Z,1006.30
2018-04-26T02:01:14.146Z,1006.29
2018-04-26T02:02:14.113Z,1006.26
2018-04-26T02:03:14.125Z,1006.23
2018-04-26T02:04:14.145Z,1006.14
2018-04-26T02:05:14.161Z,1006.25
2018-04-26T02:06:14.181Z,1006.22
2018-04-26T02:07:14.200Z,1006.16
2018-04-26T02:08:14.221Z,1006.16
2018-04-26T02:09:14.238Z,1006.19
2018-04-26T02:10:14.248Z,1006.10
2018-04-26T02:11:14.271Z,1006.12
2018-04-26T02:12:14.289Z,1006.11
2018-04-26T02:13:14.310Z,1006.13
2018-04-26T02:14:14.330Z,1006.10
2018-04-26T02:15:14.339Z,1006.12
2018-04-26T02:16:14.358Z,1006.07
2018-04-26T02:17:14.374Z,1006.08
2018-04-26T02:18:14.391Z,1006.11
2018-04-26T02:19:14.461Z,1005.94
2018-04-26T02:20:14.475Z,1006.10
2018-04-26T02:21:14.439Z,1006.01
2018-04-26T02:22:14.459Z,1006.03
2018-04-26T02:23:14.478Z,1006.05
2018-04-26T02:24:14.501Z,1006.04
2018-04-26T02:25:14.562Z,1006.04
2018-04-26T02:26:14.533Z,1006.06
2018-04-26T02:27:14.544Z,1006.06
2018-04-26T02:28:14.565Z,1006.14
2018-04-26T02:29:14.586Z,1006.05
2018-04-26T02:30:14.598Z,1006.09
2018-04-26T02:31:14.666Z,1006.07
2018-04-26T02:32:14.632Z,1006.02
2018-04-26T02:33:14.655Z,1006.02
2018-04-26T02:34:14.670Z,1005.99
2018-04-26T02:35:14.685Z,1005.97
2018-04-26T02:36:14.701Z,1005.96
2018-04-26T02:37:14.774Z,1005.90
2018-04-26T02:38:14.734Z,1005.87
2018-04-26T02:39:14.751Z,1005.85
2018-04-26T02:40:14.772Z,1005.82
2018-04-26T02:41:14.785Z,1005.84
2018-04-26T02:42:14.807Z,1005.84
2018-04-26T02:43:14.873Z,1005.78
2018-04-26T02:44:14.844Z,1005.73
2018-04-26T02:45:14.855Z,1005.76
2018-04-26T02:46:14.878Z,1005.78
2018-04-26T02:47:14.890Z,1005.76
2018-04-26T02:48:14.916Z,1005.76
2018-04-26T02:49:14.989Z,1005.72
2018-04-26T02:50:14.949Z,1005.77
2018-04-26T02:51:14.960Z,1005.75
2018-04-26T02:52:14.976Z,1005.75
2018-04-26T02:53:15.011Z,1005.77
2018-04-26T02:54:15.019Z,1005.75
2018-04-26T02:55:15.085Z,1005.72
2018-04-26T02:56:15.048Z,1005.75
2018-04-26T02:57:15.064Z,1005.68
2018-04-26T02:58:15.082Z,1005.63
2018-04-26T02:59:15.100Z,1005.61
2018-04-26T03:00:15.123Z,1005.65
2018-04-26T03:02:22.523Z,1005.70
2018-04-26T03:03:15.166Z,1005.71
2018-04-26T03:04:15.190Z,1005.70
2018-04-26T03:05:15.206Z,1005.63
2018-04-26T03:06:15.220Z,1005.61
2018-04-26T03:07:15.323Z,1005.71
2018-04-26T03:08:15.388Z,1005.76
2018-04-26T03:09:15.276Z,1005.69
2018-04-26T03:10:15.291Z,1005.74
2018-04-26T03:11:15.312Z,1005.69
2018-04-26T03:12:15.331Z,1005.70
2018-04-26T03:13:15.343Z,1005.72
2018-04-26T03:14:15.357Z,1005.68
2018-04-26T03:15:15.372Z,1005.75
2018-04-26T03:16:15.389Z,1005.68
2018-04-26T03:17:15.419Z,1005.69
2018-04-26T03:18:15.425Z,1005.70
2018-04-26T03:19:15.440Z,1005.65
2018-04-26T03:20:15.459Z,1005.62
2018-04-26T03:21:15.477Z,1005.65
2018-04-26T03:22:15.492Z,1005.63
2018-04-26T03:23:15.513Z,1005.59
2018-04-26T03:24:15.528Z,1005.60
2018-04-26T03:25:15.541Z,1005.58
2018-04-26T03:26:15.574Z,1005.60
2018-04-26T03:27:15.581Z,1005.56
2018-04-26T03:28:15.600Z,1005.58
2018-04-26T03:29:15.621Z,1005.53
2018-04-26T03:30:15.659Z,1005.53
2018-04-26T03:31:15.788Z,1005.52
2018-04-26T03:32:15.668Z,1005.56
2018-04-26T03:33:15.687Z,1005.57
2018-04-26T03:34:15.700Z,1005.51
2018-04-26T03:35:15.721Z,1005.58
2018-04-26T03:36:15.775Z,1005.56
2018-04-26T03:37:15.788Z,1005.52
2018-04-26T03:38:15.770Z,1005.54
2018-04-26T03:39:15.865Z,1005.53
2018-04-26T03:40:15.803Z,1005.52
2018-04-26T03:41:15.820Z,1005.48
2018-04-26T03:42:15.922Z,1005.48
2018-04-26T03:43:15.860Z,1005.46
2018-04-26T03:44:15.877Z,1005.49
2018-04-26T03:45:15.936Z,1005.43
2018-04-26T03:46:15.913Z,1005.43
2018-04-26T03:47:15.931Z,1005.42
2018-04-26T03:48:15.947Z,1005.44
2018-04-26T03:49:15.961Z,1005.41
2018-04-26T03:50:15.979Z,1005.38
2018-04-26T03:51:15.994Z,1005.41
2018-04-26T03:52:16.017Z,1005.38
2018-04-26T03:53:16.035Z,1005.36
2018-04-26T03:54:16.049Z,1005.31
2018-04-26T03:55:16.066Z,1005.34
2018-04-26T03:56:16.086Z,1005.34
2018-04-26T03:57:16.106Z,1005.34
2018-04-26T03:58:16.122Z,1005.38
2018-04-26T03:59:16.139Z,1005.37
2018-04-26T04:00:16.150Z,1005.39
2018-04-26T04:01:16.172Z,1005.39
2018-04-26T04:02:16.193Z,1005.40
2018-04-26T04:03:16.201Z,1005.42
2018-04-26T04:04:16.220Z,1005.46
2018-04-26T04:05:16.242Z,1005.47
2018-04-26T04:06:16.267Z,1005.51
2018-04-26T04:07:16.284Z,1005.56
2018-04-26T04:08:16.296Z,1005.58
2018-04-26T04:09:16.307Z,1005.61
2018-04-26T04:10:16.332Z,1005.65
2018-04-26T04:11:16.346Z,1005.70
2018-04-26T04:12:16.360Z,1005.72
2018-04-26T04:13:16.383Z,1005.73
2018-04-26T04:14:16.396Z,1005.69
2018-04-26T04:15:16.415Z,1005.70
2018-04-26T04:16:16.438Z,1005.70
2018-04-26T04:17:16.452Z,1005.75
2018-04-26T04:18:16.473Z,1005.77
2018-04-26T04:19:16.492Z,1005.74
2018-04-26T04:20:16.501Z,1005.70
2018-04-26T04:21:16.520Z,1005.71
2018-04-26T04:22:16.538Z,1005.75
2018-04-26T04:23:16.577Z,1005.70
2018-04-26T04:24:16.572Z,1005.70
2018-04-26T04:25:16.591Z,1005.74
2018-04-26T04:26:16.608Z,1005.72
2018-04-26T04:27:16.627Z,1005.75
2018-04-26T04:28:16.645Z,1005.73
2018-04-26T04:29:16.660Z,1005.73
2018-04-26T04:30:16.686Z,1005.72
2018-04-26T04:31:16.692Z,1005.71
2018-04-26T04:32:16.722Z,1005.75
2018-04-26T04:33:16.731Z,1005.69
2018-04-26T04:34:16.751Z,1005.73
2018-04-26T04:35:16.791Z,1005.72
2018-04-26T04:36:16.785Z,1005.71
2018-04-26T04:37:16.804Z,1005.69
2018-04-26T04:38:16.821Z,1005.66
2018-04-26T04:39:16.841Z,1005.66
2018-04-26T04:40:16.851Z,1005.71
2018-04-26T04:41:16.865Z,1005.73
2018-04-26T04:42:16.891Z,1005.70
2018-04-26T04:43:16.904Z,1005.69
2018-04-26T04:44:16.924Z,1005.77
2018-04-26T04:45:16.978Z,1005.78
2018-04-26T04:46:16.953Z,1005.73
2018-04-26T04:47:17.031Z,1005.81
2018-04-26T04:48:16.988Z,1005.78
2018-04-26T04:49:17.011Z,1005.77
2018-04-26T04:50:17.026Z,1005.79
2018-04-26T04:51:17.046Z,1005.77
2018-04-26T04:52:17.063Z,1005.73
2018-04-26T04:53:17.123Z,1005.75
2018-04-26T04:54:17.092Z,1005.70
2018-04-26T04:55:17.113Z,1005.73
2018-04-26T04:56:17.133Z,1005.71
2018-04-26T04:57:17.152Z,1005.65
2018-04-26T04:58:17.162Z,1005.68
2018-04-26T04:59:17.267Z,1005.66
2018-04-26T05:00:17.200Z,1005.64
2018-04-26T05:01:17.222Z,1005.59
2018-04-26T05:02:17.233Z,1005.50
2018-04-26T05:03:17.248Z,1005.63
2018-04-26T05:04:17.269Z,1005.56
2018-04-26T05:05:17.287Z,1005.53
2018-04-26T05:06:17.306Z,1005.61
2018-04-26T05:07:17.345Z,1005.63
2018-04-26T05:08:17.335Z,1005.67
2018-04-26T05:09:17.356Z,1005.64
2018-04-26T05:10:17.372Z,1005.67
2018-04-26T05:11:17.386Z,1005.66
2018-04-26T05:12:17.403Z,1005.66
2018-04-26T05:13:17.425Z,1005.67
2018-04-26T05:14:17.436Z,1005.69
2018-04-26T05:15:17.457Z,1005.73
2018-04-26T05:16:17.526Z,1005.71
2018-04-26T05:17:17.488Z,1005.70
2018-04-26T05:18:17.507Z,1005.68
2018-04-26T05:19:17.523Z,1005.68
2018-04-26T05:20:17.547Z,1005.71
2018-04-26T05:21:17.561Z,1005.60
2018-04-26T05:22:17.603Z,1005.60
2018-04-26T05:23:17.589Z,1005.62
2018-04-26T05:24:17.611Z,1005.59
2018-04-26T05:25:17.628Z,1005.61
2018-04-26T05:26:17.643Z,1005.59
2018-04-26T05:27:17.663Z,1005.60
2018-04-26T05:28:17.680Z,1005.57
2018-04-26T05:29:17.698Z,1005.57
2018-04-26T05:30:17.709Z,1005.52
2018-04-26T05:31:17.732Z,1005.55
2018-04-26T05:32:17.747Z,1005.56
2018-04-26T05:33:17.769Z,1005.60
2018-04-26T05:34:17.782Z,1005.62
2018-04-26T05:35:17.792Z,1005.62
2018-04-26T05:36:17.810Z,1005.63
2018-04-26T05:37:17.832Z,1005.64
2018-04-26T05:38:17.852Z,1005.68
2018-04-26T05:39:17.904Z,1005.64
2018-04-26T05:40:17.883Z,1005.64
2018-04-26T05:41:17.902Z,1005.64
2018-04-26T05:42:17.914Z,1005.65
2018-04-26T05:43:17.934Z,1005.65
2018-04-26T05:44:17.952Z,1005.63
2018-04-26T05:45:17.965Z,1005.60
2018-04-26T05:46:17.985Z,1005.64
2018-04-26T05:47:18.042Z,1005.62
2018-04-26T05:48:18.020Z,1005.60
2018-04-26T05:49:18.032Z,1005.59
2018-04-26T05:50:18.052Z,1005.64
2018-04-26T05:51:18.114Z,1005.59
2018-04-26T05:52:18.083Z,1005.63
2018-04-26T05:53:18.105Z,1005.60
2018-04-26T05:54:18.119Z,1005.60
2018-04-26T05:55:18.143Z,1005.61
2018-04-26T05:56:18.155Z,1005.59
2018-04-26T05:57:18.177Z,1005.57
2018-04-26T05:58:18.191Z,1005.60
2018-04-26T05:59:18.210Z,1005.53
2018-04-26T06:00:18.225Z,1005.52
2018-04-26T06:01:18.245Z,1005.52
2018-04-26T06:02:18.273Z,1005.57
2018-04-26T06:03:18.279Z,1005.55
2018-04-26T06:04:18.289Z,1005.58
2018-04-26T06:05:18.310Z,1005.54
2018-04-26T06:06:18.325Z,1005.56
2018-04-26T06:07:18.354Z,1005.62
2018-04-26T06:08:18.387Z,1005.60
2018-04-26T06:09:18.379Z,1005.63
2018-04-26T06:10:18.393Z,1005.62
2018-04-26T06:11:18.458Z,1005.63
2018-04-26T06:12:18.436Z,1005.61
2018-04-26T06:13:18.451Z,1005.60
2018-04-26T06:14:18.480Z,1005.64
2018-04-26T06:15:18.492Z,1005.63
2018-04-26T06:16:18.496Z,1005.65
2018-04-26T06:17:18.514Z,1005.64
2018-04-26T06:18:18.533Z,1005.61
2018-04-26T06:19:18.551Z,1005.57
2018-04-26T06:20:18.565Z,1005.61
2018-04-26T06:21:18.587Z,1005.66
2018-04-26T06:22:18.610Z,1005.68
2018-04-26T06:23:18.613Z,1005.74
2018-04-26T06:24:18.639Z,1005.79
2018-04-26T06:25:18.654Z,1005.83
2018-04-26T06:26:18.668Z,1005.85
2018-04-26T06:27:18.693Z,1005.86
2018-04-26T06:28:18.710Z,1005.87
2018-04-26T06:29:18.729Z,1005.87
2018-04-26T06:30:18.739Z,1005.95
2018-04-26T06:31:18.766Z,1005.93
2018-04-26T06:32:18.776Z,1005.97
2018-04-26T06:33:18.793Z,1005.98
2018-04-26T06:34:18.811Z,1005.98
2018-04-26T06:35:18.827Z,1006.04
2018-04-26T06:36:18.842Z,1006.08
2018-04-26T06:37:18.913Z,1006.05
2018-04-26T06:38:18.879Z,1006.08
2018-04-26T06:39:18.896Z,1006.09
2018-04-26T06:40:18.913Z,1006.12
2018-04-26T06:41:18.925Z,1006.10
2018-04-26T06:42:19.012Z,1006.11
2018-04-26T06:43:19.088Z,1006.10
2018-04-26T06:44:18.984Z,1006.12
2018-04-26T06:45:18.997Z,1006.14
2018-04-26T06:46:19.014Z,1006.12
2018-04-26T06:47:19.030Z,1006.11
2018-04-26T06:48:19.054Z,1006.11
2018-04-26T06:49:19.069Z,1006.14
2018-04-26T06:50:19.116Z,1006.18
2018-04-26T06:51:19.107Z,1006.19
2018-04-26T06:52:19.121Z,1006.23
2018-04-26T06:53:19.141Z,1006.26
2018-04-26T06:54:19.160Z,1006.27
2018-04-26T06:55:19.176Z,1006.26
2018-04-26T06:56:19.188Z,1006.27
2018-04-26T06:57:19.211Z,1006.29
2018-04-26T06:58:19.225Z,1006.31
2018-04-26T06:59:19.243Z,1006.38
2018-04-26T07:00:19.282Z,1006.34
2018-04-26T07:01:19.282Z,1006.33
2018-04-26T07:02:19.297Z,1006.25
2018-04-26T07:03:19.317Z,1006.20
2018-04-26T07:04:19.331Z,1006.26
2018-04-26T07:05:19.361Z,1006.23
2018-04-26T07:06:19.514Z,1006.22
2018-04-26T07:07:19.393Z,1006.22
2018-04-26T07:08:19.408Z,1006.26
2018-04-26T07:09:19.424Z,1006.27
2018-04-26T07:10:19.439Z,1006.27
2018-04-26T07:11:19.475Z,1006.28
2018-04-26T07:12:19.481Z,1006.37
2018-04-26T07:13:19.497Z,1006.37
2018-04-26T07:14:19.520Z,1006.47
2018-04-26T07:15:19.533Z,1006.45
2018-04-26T07:16:19.553Z,1006.44
2018-04-26T07:17:19.583Z,1006.42
2018-04-26T07:18:19.588Z,1006.40
2018-04-26T07:19:19.660Z,1006.39
2018-04-26T07:20:19.621Z,1006.34
2018-04-26T07:21:19.642Z,1006.31
2018-04-26T07:22:19.659Z,1006.34
2018-04-26T07:23:19.711Z,1006.38
2018-04-26T07:24:19.744Z,1006.39
2018-04-26T07:25:19.716Z,1006.41
2018-04-26T07:26:19.737Z,1006.36
2018-04-26T07:27:19.752Z,1006.40
2018-04-26T07:28:19.773Z,1006.41
2018-04-26T07:29:19.794Z,1006.48
2018-04-26T07:30:19.858Z,1006.50
2018-04-26T07:31:19.823Z,1006.47
2018-04-26T07:32:19.852Z,1006.52
2018-04-26T07:33:19.862Z,1006.57
2018-04-26T07:34:19.888Z,1006.64
2018-04-26T07:35:19.899Z,1006.67
2018-04-26T07:36:19.925Z,1006.72
2018-04-26T07:37:19.944Z,1006.68
2018-04-26T07:38:19.964Z,1006.65
2018-04-26T07:39:19.979Z,1006.65
2018-04-26T07:40:20.097Z,1006.64
2018-04-26T07:41:20.018Z,1006.69
2018-04-26T07:42:20.088Z,1006.66
2018-04-26T07:43:20.061Z,1006.66
2018-04-26T07:44:20.075Z,1006.71
2018-04-26T07:45:20.097Z,1006.65
2018-04-26T07:46:20.119Z,1006.67
2018-04-26T07:47:20.135Z,1006.69
2018-04-26T07:48:20.152Z,1006.68
2018-04-26T07:49:20.176Z,1006.61
2018-04-26T07:50:20.191Z,1006.59
2018-04-26T07:51:20.213Z,1006.56
2018-04-26T07:52:20.237Z,1006.55
2018-04-26T07:53:20.255Z,1006.58
2018-04-26T07:54:20.320Z,1006.60
2018-04-26T07:55:20.289Z,1006.63
2018-04-26T07:56:20.340Z,1006.66
2018-04-26T07:57:20.334Z,1006.65
2018-04-26T07:58:20.349Z,1006.72
2018-04-26T07:59:20.366Z,1006.70
2018-04-26T08:00:20.394Z,1006.74
2018-04-26T08:01:20.415Z,1006.74
2018-04-26T08:02:20.499Z,1006.77
2018-04-26T08:03:20.447Z,1006.74
2018-04-26T08:04:20.467Z,1006.79
2018-04-26T08:05:20.490Z,1006.81
2018-04-26T08:06:20.560Z,1006.77
2018-04-26T08:07:20.567Z,1006.73
2018-04-26T08:08:20.553Z,1006.73
2018-04-26T08:09:20.569Z,1006.69
2018-04-26T08:10:20.592Z,1006.68
2018-04-26T08:11:20.611Z,1006.68
2018-04-26T08:12:20.677Z,1006.67
2018-04-26T08:13:20.649Z,1006.68
2018-04-26T08:14:20.672Z,1006.67
2018-04-26T08:15:20.699Z,1006.68
2018-04-26T08:16:20.711Z,1006.70
2018-04-26T08:17:20.736Z,1006.74
2018-04-26T08:18:20.812Z,1006.73
2018-04-26T08:19:20.773Z,1006.74
2018-04-26T08:20:20.797Z,1006.78
2018-04-26T08:21:20.812Z,1006.65
2018-04-26T08:22:20.836Z,1006.66
2018-04-26T08:23:20.851Z,1006.69
2018-04-26T08:24:20.931Z,1006.64
2018-04-26T08:25:20.893Z,1006.70
2018-04-26T08:26:20.918Z,1006.70
2018-04-26T08:27:20.939Z,1006.62
2018-04-26T08:28:20.965Z,1006.62
2018-04-26T08:29:20.981Z,1006.60
2018-04-26T08:30:21.067Z,1006.60
2018-04-26T08:31:21.025Z,1006.57
2018-04-26T08:32:21.043Z,1006.52
2018-04-26T08:33:21.061Z,1006.50
2018-04-26T08:34:21.087Z,1006.45
2018-04-26T08:35:21.111Z,1006.48
2018-04-26T08:36:21.200Z,1006.43
2018-04-26T08:37:21.152Z,1006.44
2018-04-26T08:38:21.165Z,1006.41
2018-04-26T08:39:21.195Z,1006.38
2018-04-26T08:40:21.209Z,1006.38
2018-04-26T08:41:21.231Z,1006.44
2018-04-26T08:42:21.305Z,1006.44
2018-04-26T08:43:21.275Z,1006.45
2018-04-26T08:44:21.298Z,1006.44
2018-04-26T08:45:21.312Z,1006.48
2018-04-26T08:46:21.338Z,1006.49
2018-04-26T08:47:21.407Z,1006.54
2018-04-26T08:48:21.382Z,1006.56
2018-04-26T08:49:21.399Z,1006.55
2018-04-26T08:50:21.420Z,1006.55
2018-04-26T08:51:21.441Z,1006.58
2018-04-26T08:52:21.540Z,1006.58
2018-04-26T08:53:21.483Z,1006.60
2018-04-26T08:54:21.529Z,1006.61
2018-04-26T08:55:21.527Z,1006.61
2018-04-26T08:56:21.550Z,1006.66
2018-04-26T08:57:21.574Z,1006.63
2018-04-26T08:58:21.660Z,1006.63
2018-04-26T08:59:21.619Z,1006.65
2018-04-26T09:00:21.689Z,1006.77
2018-04-26T09:01:21.654Z,1006.65
2018-04-26T09:02:21.680Z,1006.72
2018-04-26T09:03:21.704Z,1006.70
2018-04-26T09:04:21.728Z,1006.74
2018-04-26T09:05:21.751Z,1006.75
2018-04-26T09:06:21.818Z,1006.71
2018-04-26T09:07:21.796Z,1006.72
2018-04-26T09:08:21.817Z,1006.70
2018-04-26T09:09:21.849Z,1006.70
2018-04-26T09:10:21.855Z,1006.74
2018-04-26T09:11:21.925Z,1006.80
2018-04-26T09:12:21.899Z,1006.80
2018-04-26T09:13:21.929Z,1006.78
2018-04-26T09:14:21.945Z,1006.80
2018-04-26T09:15:22.001Z,1006.80
2018-04-26T09:16:21.987Z,1006.77
2018-04-26T09:17:22.015Z,1006.76
2018-04-26T09:18:22.036Z,1006.72
2018-04-26T09:19:22.055Z,1006.75
2018-04-26T09:20:22.080Z,1006.77
2018-04-26T09:21:22.118Z,1006.76
2018-04-26T09:22:22.118Z,1006.81
2018-04-26T09:23:22.147Z,1006.77
2018-04-26T09:24:22.170Z,1006.80
2018-04-26T09:25:22.189Z,1006.83
2018-04-26T09:26:22.213Z,1006.79
2018-04-26T09:27:22.294Z,1006.90
2018-04-26T09:28:22.256Z,1006.88
2018-04-26T09:29:22.280Z,1006.83
2018-04-26T09:30:22.352Z,1006.80
2018-04-26T09:31:22.319Z,1006.83
2018-04-26T09:32:22.339Z,1006.83
2018-04-26T09:33:22.401Z,1006.90
2018-04-26T09:34:22.385Z,1006.91
2018-04-26T09:35:22.410Z,1006.90
2018-04-26T09:36:22.438Z,1006.92
2018-04-26T09:37:22.459Z,1006.99
2018-04-26T09:38:22.478Z,1007.01
2018-04-26T09:39:22.553Z,1006.98
2018-04-26T09:40:22.518Z,1006.99
2018-04-26T09:41:22.543Z,1007.01
2018-04-26T09:42:22.583Z,1007.02
2018-04-26T09:43:22.592Z,1007.02
2018-04-26T09:44:22.613Z,1007.05
2018-04-26T09:45:22.696Z,1007.07
2018-04-26T09:46:22.661Z,1007.08
2018-04-26T09:47:22.689Z,1007.12
2018-04-26T09:48:22.760Z,1007.12
2018-04-26T09:49:22.725Z,1007.14
2018-04-26T09:50:22.754Z,1007.16
2018-04-26T09:51:22.851Z,1007.14
2018-04-26T09:52:22.793Z,1007.14
2018-04-26T09:53:22.819Z,1007.18
2018-04-26T09:54:22.895Z,1007.14
2018-04-26T09:55:22.867Z,1007.15
2018-04-26T09:56:22.887Z,1007.15
2018-04-26T09:57:22.931Z,1007.13
2018-04-26T09:58:22.939Z,1007.10
2018-04-26T09:59:22.972Z,1007.06
2018-04-26T10:00:22.986Z,1007.09
2018-04-26T10:01:23.005Z,1007.11
2018-04-26T10:02:23.027Z,1007.11
2018-04-26T10:03:23.052Z,1007.09
2018-04-26T10:04:23.079Z,1007.04
2018-04-26T10:05:23.119Z,1007.06
2018-04-26T10:06:23.171Z,1007.05
2018-04-26T10:07:23.144Z,1007.05
2018-04-26T10:08:23.172Z,1007.02
2018-04-26T10:09:23.187Z,1007.03
2018-04-26T10:10:23.218Z,1006.98
2018-04-26T10:11:23.236Z,1006.98
2018-04-26T10:12:23.307Z,1006.97
2018-04-26T10:13:23.283Z,1006.97
2018-04-26T10:14:23.309Z,1006.97
2018-04-26T10:15:23.326Z,1006.97
2018-04-26T10:16:23.356Z,1006.99
2018-04-26T10:17:23.379Z,1006.99
2018-04-26T10:18:23.403Z,1007.01
2018-04-26T10:19:23.425Z,1006.95
2018-04-26T10:20:23.450Z,1006.99
2018-04-26T10:21:23.473Z,1006.93
2018-04-26T10:22:23.500Z,1006.98
2018-04-26T10:23:23.519Z,1007.04
2018-04-26T10:24:23.597Z,1006.98
2018-04-26T10:25:23.569Z,1006.99
2018-04-26T10:26:23.592Z,1007.00
2018-04-26T10:27:23.612Z,1006.97
2018-04-26T10:28:23.636Z,1006.98
2018-04-26T10:29:23.661Z,1007.00
2018-04-26T10:30:23.695Z,1006.99
2018-04-26T10:31:23.709Z,1007.00
2018-04-26T10:32:23.733Z,1006.99
2018-04-26T10:33:23.758Z,1007.00
2018-04-26T10:34:23.778Z,1006.98
2018-04-26T10:35:23.840Z,1007.00
2018-04-26T10:36:23.920Z,1006.99
2018-04-26T10:37:23.857Z,1007.00
2018-04-26T10:38:23.884Z,1007.05
2018-04-26T10:39:23.900Z,1007.08
2018-04-26T10:40:23.929Z,1007.03
2018-04-26T10:41:23.950Z,1007.01
2018-04-26T10:42:23.976Z,1006.98
2018-04-26T10:43:23.997Z,1007.04
2018-04-26T10:44:24.103Z,1006.99
2018-04-26T10:45:24.045Z,1007.05
2018-04-26T10:46:24.072Z,1007.04
2018-04-26T10:47:24.138Z,1007.04
2018-04-26T10:48:24.184Z,1007.06
2018-04-26T10:49:24.145Z,1007.06
2018-04-26T10:50:24.177Z,1007.05
2018-04-26T10:51:24.195Z,1006.99
2018-04-26T10:52:24.221Z,1007.02
2018-04-26T10:53:24.253Z,1007.00
2018-04-26T10:54:24.324Z,1007.00
2018-04-26T10:55:24.296Z,1007.01
2018-04-26T10:56:24.325Z,1006.97
2018-04-26T10:57:24.349Z,1006.99
2018-04-26T10:58:24.369Z,1007.00
2018-04-26T10:59:24.393Z,1007.00
2018-04-26T11:00:24.420Z,1006.97
2018-04-26T11:01:24.450Z,1006.99
2018-04-26T11:02:24.478Z,1006.97
2018-04-26T11:03:24.499Z,1006.94
2018-04-26T11:04:24.526Z,1006.97
2018-04-26T11:05:24.554Z,1006.94
2018-04-26T11:06:24.575Z,1007.04
2018-04-26T11:07:24.599Z,1006.98
2018-04-26T11:08:24.625Z,1007.01
2018-04-26T11:09:24.654Z,1007.01
2018-04-26T11:10:24.681Z,1007.02
2018-04-26T11:11:24.789Z,1007.02
2018-04-26T11:12:24.727Z,1006.99
2018-04-26T11:13:24.756Z,1007.04
2018-04-26T11:14:24.785Z,1007.04
2018-04-26T11:15:24.866Z,1007.06
2018-04-26T11:16:24.833Z,1007.05
2018-04-26T11:17:24.858Z,1007.01
2018-04-26T11:18:24.883Z,1007.04
2018-04-26T11:19:24.913Z,1007.05
2018-04-26T11:20:24.944Z,1007.03
2018-04-26T11:21:25.065Z,1007.01
2018-04-26T11:22:24.995Z,1006.99
2018-04-26T11:23:25.021Z,1007.00
2018-04-26T11:24:25.142Z,1007.01
2018-04-26T11:25:25.063Z,1006.99
2018-04-26T11:26:25.090Z,1006.94
2018-04-26T11:27:25.119Z,1006.91
2018-04-26T11:28:25.144Z,1006.91
2018-04-26T11:29:25.236Z,1006.85
2018-04-26T11:30:25.191Z,1006.89
2018-04-26T11:31:25.223Z,1006.87
2018-04-26T11:32:25.247Z,1006.89
2018-04-26T11:33:25.275Z,1006.86
2018-04-26T11:34:25.299Z,1006.86
2018-04-26T11:35:25.325Z,1006.81
2018-04-26T11:36:25.410Z,1006.79
2018-04-26T11:37:25.406Z,1006.79
2018-04-26T11:38:25.417Z,1006.79
2018-04-26T11:39:25.434Z,1006.78
2018-04-26T11:40:25.451Z,1006.73
2018-04-26T11:41:25.483Z,1006.78
2018-04-26T11:42:25.559Z,1006.79
2018-04-26T11:43:25.534Z,1006.78
2018-04-26T11:44:25.581Z,1006.83
2018-04-26T11:45:25.588Z,1006.85
2018-04-26T11:46:25.616Z,1006.80
2018-04-26T11:47:25.634Z,1006.84
2018-04-26T11:48:25.691Z,1006.89
2018-04-26T11:49:25.687Z,1006.84
2018-04-26T11:50:25.724Z,1006.83
2018-04-26T11:51:25.740Z,1006.83
2018-04-26T11:52:25.781Z,1006.84
2018-04-26T11:53:25.793Z,1006.80
2018-04-26T11:54:25.824Z,1006.81
2018-04-26T11:55:25.854Z,1006.83
2018-04-26T11:56:25.916Z,1006.77
2018-04-26T11:57:25.907Z,1006.78
2018-04-26T11:58:25.935Z,1006.76
2018-04-26T11:59:25.953Z,1006.75
2018-04-26T12:00:25.986Z,1006.75
2018-04-26T12:01:26.017Z,1006.79
2018-04-26T12:02:26.073Z,1006.79
2018-04-26T12:03:26.066Z,1006.78
2018-04-26T12:04:26.098Z,1006.76
2018-04-26T12:05:26.205Z,1006.68
2018-04-26T12:06:26.147Z,1006.65